| time (UTC) | temp C | wind direction | speed KPH | gust KPH | rain 1hr cm | rain 24hr cm | rain mn cm | humidity % | barometer mb |
| 20260906080130 | 28 | 87 | 6.4 | 19.3 | 0.00 | 0.00 | 0.00 | 70 | 1021.8 |
| 20260906080014 | 28 | 82 | 9.7 | 19.3 | 0.00 | 0.00 | 0.00 | 69 | 1021.9 |
| 20260906075128 | 28 | 90 | 0.0 | 4.8 | 0.00 | 0.00 | 0.00 | 71 | 1021.8 |
| 20260906074512 | 28 | 84 | 3.2 | 6.4 | 0.00 | 0.00 | 0.00 | 72 | 1021.7 |
| 20260906074159 | 28 | 82 | 3.2 | 6.4 | 0.00 | 0.00 | 0.00 | 73 | 1021.7 |
| 20260906073152 | 28 | 91 | 1.6 | 4.8 | 0.00 | 0.00 | 0.00 | 74 | 1021.7 |
| 20260906073005 | 27 | 98 | 0.0 | 4.8 | 0.00 | 0.00 | 0.00 | 75 | 1021.6 |
| 20260906072130 | 27 | 244 | 0.0 | 1.6 | 0.00 | 0.00 | 0.00 | 80 | 1021.6 |
| 20260906071526 | 26 | 238 | 0.0 | 1.6 | 0.00 | 0.00 | 0.00 | 81 | 1021.5 |
| 20260906071129 | 26 | 281 | 0.0 | 1.6 | 0.00 | 0.00 | 0.00 | 82 | 1021.5 |
| 20260906070027 | 25 | 288 | 0.0 | 3.2 | 0.00 | 0.00 | 0.00 | 85 | 1021.3 |
| 20260906065132 | 25 | 281 | 1.6 | 3.2 | 0.00 | 0.00 | 0.00 | 86 | 1021.3 |
| 20260906064520 | 24 | 246 | 0.0 | 3.2 | 0.00 | 0.00 | 0.00 | 86 | 1021.3 |
| 20260906064124 | 24 | 241 | 1.6 | 3.2 | 0.00 | 0.00 | 0.00 | 86 | 1021.3 |
| 20260906063127 | 23 | 267 | 0.0 | 3.2 | 0.00 | 0.00 | 0.00 | 88 | 1021.2 |
| 20260906063017 | 23 | 267 | 0.0 | 3.2 | 0.00 | 0.00 | 0.00 | 88 | 1021.1 |
| 20260906062139 | 23 | 224 | 1.6 | 3.2 | 0.00 | 0.00 | 0.00 | 89 | 1021.2 |
| 20260906061516 | 22 | 260 | 1.6 | 3.2 | 0.00 | 0.00 | 0.00 | 88 | 1021.1 |
| 20260906061147 | 23 | 230 | 1.6 | 3.2 | 0.00 | 0.00 | 0.00 | 89 | 1021.1 |
| 20260906060137 | 22 | 233 | 1.6 | 4.8 | 0.00 | 0.00 | 0.00 | 89 | 1021.0 |
| 20260906060019 | 22 | 225 | 3.2 | 4.8 | 0.00 | 0.00 | 0.00 | 89 | 1021.0 |
| 20260906055151 | 22 | 232 | 3.2 | 6.4 | 0.00 | 0.00 | 0.00 | 90 | 1021.0 |
| 20260906054535 | 22 | 229 | 1.6 | 4.8 | 0.00 | 0.00 | 0.00 | 89 | 1020.9 |
| 20260906054217 | 22 | 232 | 3.2 | 4.8 | 0.00 | 0.00 | 0.00 | 90 | 1020.8 |
| 20260906053133 | 22 | 223 | 1.6 | 3.2 | 0.00 | 0.00 | 0.00 | 91 | 1020.6 |
| 20260906053033 | 21 | 203 | 0.0 | 3.2 | 0.00 | 0.00 | 0.00 | 90 | 1020.6 |
| 20260906052137 | 22 | 228 | 1.6 | 3.2 | 0.00 | 0.00 | 0.00 | 91 | 1020.5 |
| 20260906051523 | 21 | 221 | 0.0 | 4.8 | 0.00 | 0.00 | 0.00 | 91 | 1020.5 |
| 20260906051135 | 22 | 231 | 3.2 | 4.8 | 0.00 | 0.00 | 0.00 | 92 | 1020.5 |
| 20260906050126 | 22 | 237 | 1.6 | 4.8 | 0.00 | 0.00 | 0.00 | 92 | 1020.4 |
| 20260906050032 | 21 | 234 | 1.6 | 4.8 | 0.00 | 0.00 | 0.00 | 92 | 1020.4 |
| 20260906045135 | 22 | 221 | 3.2 | 4.8 | 0.00 | 0.00 | 0.00 | 91 | 1020.2 |
| 20260906044532 | 22 | 229 | 1.6 | 4.8 | 0.00 | 0.00 | 0.00 | 89 | 1020.2 |
| 20260906044137 | 22 | 257 | 0.0 | 1.6 | 0.00 | 0.00 | 0.00 | 91 | 1020.1 |
| 20260906043127 | 23 | 258 | 0.0 | 0.0 | 0.00 | 0.00 | 0.00 | 91 | 1020.1 |
| 20260906043010 | 22 | 258 | 0.0 | 0.0 | 0.00 | 0.00 | 0.00 | 91 | 1020.0 |
| 20260906042128 | 23 | 258 | 0.0 | 1.6 | 0.00 | 0.00 | 0.00 | 91 | 1019.8 |
| 20260906041534 | 22 | 255 | 0.0 | 1.6 | 0.00 | 0.00 | 0.00 | 91 | 1019.8 |
| 20260906041133 | 23 | 255 | 0.0 | 1.6 | 0.00 | 0.00 | 0.00 | 91 | 1019.8 |
| 20260906040143 | 23 | 267 | 1.6 | 1.6 | 0.00 | 0.00 | 0.00 | 90 | 1019.7 |
| 20260906040034 | 23 | 268 | 0.0 | 1.6 | 0.00 | 0.00 | 0.00 | 88 | 1019.7 |
| 20260906035155 | 24 | 45 | 0.0 | 0.0 | 0.00 | 0.00 | 0.00 | 89 | 1019.6 |
| 20260906034531 | 23 | 44 | 0.0 | 1.6 | 0.00 | 0.00 | 0.00 | 89 | 1019.5 |
| 20260906034134 | 24 | 44 | 0.0 | 1.6 | 0.00 | 0.00 | 0.00 | 89 | 1019.4 |
| 20260906033131 | 24 | 44 | 0.0 | 0.0 | 0.00 | 0.00 | 0.00 | 89 | 1019.5 |
| 20260906033037 | 24 | 44 | 0.0 | 0.0 | 0.00 | 0.00 | 0.00 | 89 | 1019.4 |
| 20260906032137 | 24 | 44 | 0.0 | 3.2 | 0.00 | 0.00 | 0.00 | 89 | 1019.4 |
| 20260906031518 | 24 | 39 | 1.6 | 3.2 | 0.00 | 0.00 | 0.00 | 88 | 1019.4 |
| 20260906031131 | 25 | 41 | 1.6 | 3.2 | 0.00 | 0.00 | 0.00 | 89 | 1019.4 |
| 20260906030139 | 24 | 41 | 3.2 | 4.8 | 0.00 | 0.00 | 0.00 | 89 | 1019.3 |
| 20260906030015 | 24 | 43 | 3.2 | 4.8 | 0.00 | 0.00 | 0.00 | 88 | 1019.3 |
| 20260906025127 | 24 | 48 | 1.6 | 4.8 | 0.00 | 0.00 | 0.00 | 88 | 1019.3 |
| 20260906024532 | 23 | 40 | 3.2 | 4.8 | 0.00 | 0.00 | 0.00 | 87 | 1019.4 |
| 20260906024152 | 24 | 41 | 3.2 | 4.8 | 0.00 | 0.00 | 0.00 | 88 | 1019.3 |
| 20260906023144 | 23 | 32 | 1.6 | 3.2 | 0.00 | 0.00 | 0.00 | 88 | 1019.3 |
| 20260906023035 | 23 | 26 | 1.6 | 3.2 | 0.00 | 0.00 | 0.00 | 88 | 1019.3 |
| 20260906022138 | 23 | 21 | 0.0 | 3.2 | 0.00 | 0.00 | 0.00 | 89 | 1019.3 |
| 20260906021531 | 23 | 22 | 1.6 | 4.8 | 0.00 | 0.00 | 0.00 | 89 | 1019.3 |
| 20260906021130 | 23 | 18 | 3.2 | 4.8 | 0.00 | 0.00 | 0.00 | 90 | 1019.2 |
| 20260906020137 | 23 | 345 | 3.2 | 3.2 | 0.00 | 0.00 | 0.00 | 91 | 1019.1 |
| 20260906020027 | 23 | 345 | 1.6 | 3.2 | 0.00 | 0.00 | 0.00 | 90 | 1019.1 |
| 20260906015132 | 23 | 359 | 1.6 | 3.2 | 0.00 | 0.00 | 0.00 | 91 | 1019.0 |
| 20260906014531 | 23 | 349 | 0.0 | 1.6 | 0.00 | 0.00 | 0.00 | 91 | 1019.0 |
| 20260906014130 | 23 | 349 | 0.0 | 3.2 | 0.00 | 0.00 | 0.00 | 91 | 1019.0 |
| 20260906013205 | 23 | 20 | 1.6 | 3.2 | 0.00 | 0.00 | 0.00 | 93 | 1018.9 |
| 20260906013024 | 22 | 4 | 0.0 | 3.2 | 0.00 | 0.00 | 0.00 | 92 | 1018.9 |
| 20260906011539 | 22 | 354 | 4.8 | 8.0 | 0.00 | 0.00 | 0.00 | 90 | 1018.9 |
| 20260906011143 | 22 | 355 | 4.8 | 8.0 | 0.00 | 0.00 | 0.00 | 90 | 1018.8 |
| 20260906010133 | 22 | 246 | 0.0 | 4.8 | 0.00 | 0.00 | 0.00 | 87 | 1018.7 |
| 20260906010036 | 22 | 246 | 1.6 | 4.8 | 0.00 | 0.00 | 0.00 | 88 | 1018.6 |
| 20260906005134 | 23 | 223 | 3.2 | 4.8 | 0.00 | 0.00 | 0.00 | 89 | 1018.7 |
| 20260906004506 | 22 | 215 | 3.2 | 4.8 | 0.00 | 0.00 | 0.00 | 89 | 1018.7 |
| 20260906004137 | 23 | 230 | 1.6 | 3.2 | 0.00 | 0.00 | 0.00 | 88 | 1018.6 |
| 20260906003137 | 24 | 68 | 0.0 | 0.0 | 0.00 | 0.00 | 0.00 | 88 | 1018.6 |
| 20260906003006 | 23 | 68 | 0.0 | 0.0 | 0.00 | 0.00 | 0.00 | 87 | 1018.7 |
| 20260906002139 | 24 | 68 | 0.0 | 0.0 | 0.00 | 0.00 | 0.00 | 88 | 1018.7 |
| 20260906001504 | 24 | 68 | 0.0 | 0.0 | 0.00 | 0.00 | 0.00 | 88 | 1018.8 |
| 20260906001133 | 25 | 68 | 0.0 | 0.0 | 0.00 | 0.00 | 0.00 | 88 | 1018.7 |
| 20260906000142 | 25 | 67 | 0.0 | 0.0 | 0.00 | 0.00 | 0.00 | 88 | 1018.7 |
| 20260906000004 | 24 | 67 | 0.0 | 0.0 | 0.00 | 0.00 | 0.00 | 88 | 1018.7 |
| 20260905235136 | 25 | 67 | 0.0 | 0.0 | 0.00 | 0.00 | 0.00 | 87 | 1018.7 |
| 20260905234507 | 25 | 67 | 0.0 | 0.0 | 0.00 | 0.00 | 0.00 | 86 | 1018.8 |
| 20260905234129 | 25 | 68 | 0.0 | 0.0 | 0.00 | 0.00 | 0.00 | 87 | 1018.6 |
| 20260905233136 | 25 | 68 | 0.0 | 0.0 | 0.00 | 0.00 | 0.00 | 87 | 1018.6 |
| 20260905233005 | 25 | 68 | 0.0 | 0.0 | 0.00 | 0.00 | 0.00 | 86 | 1018.6 |
| 20260905232139 | 25 | 66 | 0.0 | 1.6 | 0.00 | 0.00 | 0.00 | 86 | 1018.6 |
| 20260905231504 | 25 | 68 | 0.0 | 3.2 | 0.00 | 0.00 | 0.00 | 85 | 1018.7 |
| 20260905231153 | 25 | 69 | 0.0 | 4.8 | 0.00 | 0.00 | 0.00 | 86 | 1018.6 |
| 20260905230008 | 25 | 61 | 0.0 | 3.2 | 0.00 | 0.00 | 0.00 | 85 | 1018.7 |
| 20260905225154 | 25 | 46 | 1.6 | 3.2 | 0.00 | 0.00 | 0.00 | 85 | 1018.6 |
| 20260905224508 | 25 | 34 | 1.6 | 4.8 | 0.00 | 0.00 | 0.00 | 84 | 1018.6 |
| 20260905224129 | 25 | 34 | 0.0 | 6.4 | 0.00 | 0.00 | 0.00 | 84 | 1018.5 |
| 20260905223134 | 25 | 10 | 1.6 | 3.2 | 0.00 | 0.00 | 0.00 | 83 | 1018.6 |
| 20260905223006 | 25 | 17 | 1.6 | 3.2 | 0.00 | 0.00 | 0.00 | 83 | 1018.6 |
| 20260905222148 | 25 | 86 | 0.0 | 3.2 | 0.00 | 0.00 | 0.00 | 83 | 1018.4 |
| 20260905221513 | 25 | 40 | 1.6 | 3.2 | 0.00 | 0.00 | 0.00 | 82 | 1018.5 |
| 20260905221133 | 26 | 84 | 0.0 | 3.2 | 0.00 | 0.00 | 0.00 | 82 | 1018.3 |
| 20260905220140 | 25 | 86 | 0.0 | 3.2 | 0.00 | 0.00 | 0.00 | 82 | 1018.3 |
| 20260905220010 | 25 | 60 | 0.0 | 3.2 | 0.00 | 0.00 | 0.00 | 81 | 1018.3 |
| 20260905215131 | 26 | 94 | 1.6 | 3.2 | 0.00 | 0.00 | 0.00 | 82 | 1018.2 |
| 20260905214513 | 25 | 88 | 0.0 | 1.6 | 0.00 | 0.00 | 0.00 | 82 | 1018.2 |
| 20260905214127 | 25 | 89 | 0.0 | 1.6 | 0.00 | 0.00 | 0.00 | 82 | 1018.1 |
| 20260905213128 | 26 | 93 | 0.0 | 4.8 | 0.00 | 0.00 | 0.00 | 81 | 1018.1 |
| 20260905213012 | 25 | 91 | 0.0 | 6.4 | 0.00 | 0.00 | 0.00 | 81 | 1018.2 |
| 20260905212134 | 26 | 82 | 4.8 | 6.4 | 0.00 | 0.00 | 0.00 | 81 | 1018.0 |
| 20260905211511 | 25 | 86 | 3.2 | 6.4 | 0.00 | 0.00 | 0.00 | 80 | 1018.0 |
| 20260905211139 | 26 | 84 | 3.2 | 6.4 | 0.00 | 0.00 | 0.00 | 80 | 1018.0 |
| 20260905210127 | 26 | 79 | 8.0 | 8.0 | 0.00 | 0.00 | 0.00 | 80 | 1017.9 |
| 20260905210011 | 25 | 84 | 8.0 | 8.0 | 0.00 | 0.00 | 0.00 | 79 | 1018.0 |
| 20260905205132 | 26 | 91 | 6.4 | 8.0 | 0.00 | 0.00 | 0.00 | 79 | 1018.0 |
| 20260905204517 | 26 | 87 | 4.8 | 8.0 | 0.00 | 0.00 | 0.00 | 77 | 1018.0 |
| 20260905204135 | 26 | 77 | 4.8 | 8.0 | 0.00 | 0.00 | 0.00 | 78 | 1018.0 |
| 20260905203138 | 26 | 83 | 3.2 | 8.0 | 0.00 | 0.00 | 0.00 | 77 | 1018.0 |
| 20260905203014 | 26 | 84 | 3.2 | 8.0 | 0.00 | 0.00 | 0.00 | 76 | 1018.0 |
| 20260905202134 | 26 | 79 | 6.4 | 6.4 | 0.00 | 0.00 | 0.00 | 76 | 1018.0 |
| 20260905201512 | 26 | 91 | 4.8 | 6.4 | 0.00 | 0.00 | 0.00 | 75 | 1017.9 |
| 20260905201139 | 26 | 88 | 4.8 | 6.4 | 0.00 | 0.00 | 0.00 | 75 | 1018.0 |
| 20260905200133 | 26 | 84 | 4.8 | 6.4 | 0.00 | 0.00 | 0.00 | 75 | 1017.9 |
| 20260905200015 | 26 | 82 | 4.8 | 6.4 | 0.00 | 0.00 | 0.00 | 74 | 1017.8 |
| 20260905195139 | 26 | 82 | 6.4 | 6.4 | 0.00 | 0.00 | 0.00 | 75 | 1017.8 |
| 20260905194516 | 26 | 90 | 3.2 | 4.8 | 0.00 | 0.00 | 0.00 | 73 | 1017.7 |
| 20260905194144 | 26 | 92 | 3.2 | 3.2 | 0.00 | 0.00 | 0.00 | 73 | 1017.8 |
| 20260905193204 | 26 | 90 | 0.0 | 4.8 | 0.00 | 0.00 | 0.00 | 72 | 1017.7 |
| 20260905193015 | 26 | 90 | 0.0 | 4.8 | 0.00 | 0.00 | 0.00 | 71 | 1017.6 |
| 20260905192125 | 27 | 84 | 3.2 | 6.4 | 0.00 | 0.00 | 0.00 | 71 | 1017.7 |
| 20260905191515 | 26 | 91 | 4.8 | 8.0 | 0.00 | 0.00 | 0.00 | 70 | 1017.5 |
| 20260905191131 | 26 | 84 | 4.8 | 8.0 | 0.00 | 0.00 | 0.00 | 70 | 1017.5 |
| 20260905190140 | 27 | 94 | 4.8 | 6.4 | 0.00 | 0.00 | 0.00 | 70 | 1017.5 |
| 20260905190018 | 26 | 83 | 4.8 | 6.4 | 0.00 | 0.00 | 0.00 | 69 | 1017.4 |
| 20260905185139 | 27 | 84 | 0.0 | 6.4 | 0.00 | 0.00 | 0.00 | 67 | 1017.3 |
| 20260905184518 | 27 | 106 | 4.8 | 8.0 | 0.00 | 0.00 | 0.00 | 66 | 1017.1 |
| 20260905184148 | 27 | 117 | 4.8 | 8.0 | 0.00 | 0.00 | 0.00 | 66 | 1017.1 |
| 20260905183152 | 27 | 105 | 0.0 | 6.4 | 0.00 | 0.00 | 0.00 | 65 | 1017.0 |
| 20260905183018 | 27 | 111 | 0.0 | 6.4 | 0.00 | 0.00 | 0.00 | 64 | 1016.8 |
| 20260905182201 | 28 | 82 | 1.6 | 6.4 | 0.00 | 0.00 | 0.00 | 64 | 1016.9 |
| 20260905181518 | 27 | 93 | 3.2 | 9.7 | 0.00 | 0.00 | 0.00 | 62 | 1016.7 |
| 20260905181138 | 28 | 98 | 4.8 | 9.7 | 0.00 | 0.00 | 0.00 | 62 | 1016.9 |
| 20260905180135 | 28 | 120 | 8.0 | 16.1 | 0.00 | 0.00 | 0.00 | 62 | 1016.8 |
| 20260905180024 | 28 | 102 | 9.7 | 16.1 | 0.00 | 0.00 | 0.00 | 62 | 1016.5 |
| 20260905175135 | 28 | 85 | 8.0 | 16.1 | 0.00 | 0.00 | 0.00 | 62 | 1016.7 |
| 20260905174507 | 28 | 108 | 8.0 | 14.5 | 0.00 | 0.00 | 0.00 | 61 | 1016.4 |
| 20260905174134 | 28 | 104 | 6.4 | 12.9 | 0.00 | 0.00 | 0.00 | 62 | 1016.5 |
| 20260905173130 | 29 | 85 | 4.8 | 9.7 | 0.00 | 0.00 | 0.00 | 61 | 1016.4 |
| 20260905173006 | 28 | 98 | 4.8 | 12.9 | 0.00 | 0.00 | 0.00 | 61 | 1016.2 |
| 20260905172134 | 30 | 93 | 9.7 | 14.5 | 0.00 | 0.00 | 0.00 | 59 | 1016.3 |
| 20260905171503 | 29 | 106 | 8.0 | 17.7 | 0.00 | 0.00 | 0.00 | 56 | 1016.1 |
| 20260905171143 | 30 | 103 | 8.0 | 19.3 | 0.00 | 0.00 | 0.00 | 54 | 1016.2 |
| 20260905170153 | 30 | 91 | 17.7 | 20.9 | 0.00 | 0.00 | 0.00 | 53 | 1016.2 |
| 20260905170023 | 30 | 84 | 16.1 | 20.9 | 0.00 | 0.00 | 0.00 | 52 | 1016.0 |
| 20260905165127 | 30 | 101 | 11.3 | 22.5 | 0.00 | 0.00 | 0.00 | 58 | 1016.1 |
| 20260905164520 | 29 | 99 | 12.9 | 22.5 | 0.00 | 0.00 | 0.00 | 57 | 1016.0 |
| 20260905164152 | 30 | 98 | 14.5 | 22.5 | 0.00 | 0.00 | 0.00 | 58 | 1016.1 |
| 20260905163141 | 30 | 91 | 16.1 | 22.5 | 0.00 | 0.00 | 0.00 | 58 | 1016.0 |
| 20260905163016 | 30 | 96 | 14.5 | 22.5 | 0.00 | 0.00 | 0.00 | 58 | 1015.9 |
| 20260905162148 | 30 | 74 | 16.1 | 22.5 | 0.00 | 0.00 | 0.00 | 57 | 1016.0 |
| 20260905161510 | 30 | 89 | 14.5 | 24.1 | 0.00 | 0.00 | 0.00 | 58 | 1015.8 |
| 20260905161129 | 31 | 114 | 14.5 | 24.1 | 0.00 | 0.00 | 0.00 | 56 | 1015.8 |
| 20260905160132 | 31 | 101 | 16.1 | 24.1 | 0.00 | 0.00 | 0.00 | 57 | 1015.7 |
| 20260905160011 | 30 | 94 | 14.5 | 22.5 | 0.00 | 0.00 | 0.00 | 57 | 1015.7 |
| 20260905155143 | 31 | 76 | 11.3 | 24.1 | 0.00 | 0.00 | 0.00 | 58 | 1015.7 |
| 20260905154526 | 31 | 89 | 17.7 | 24.1 | 0.00 | 0.00 | 0.00 | 56 | 1015.5 |
| 20260905154127 | 31 | 84 | 17.7 | 27.4 | 0.00 | 0.00 | 0.00 | 55 | 1015.6 |
| 20260905153203 | 31 | 96 | 20.9 | 27.4 | 0.00 | 0.00 | 0.00 | 55 | 1015.6 |
| 20260905153028 | 31 | 90 | 19.3 | 27.4 | 0.00 | 0.00 | 0.00 | 56 | 1015.5 |
| 20260905152136 | 35 | 75 | 11.3 | 16.1 | 0.00 | 0.00 | 0.00 | 46 | 1015.5 |
| 20260905151523 | 35 | 301 | 4.8 | 11.3 | 0.00 | 0.00 | 0.00 | 34 | 1015.3 |
| 20260905151129 | 35 | 305 | 3.2 | 11.3 | 0.00 | 0.00 | 0.00 | 35 | 1015.4 |
| 20260905150141 | 35 | 231 | 8.0 | 12.9 | 0.00 | 0.00 | 0.00 | 34 | 1015.5 |
| 20260905150018 | 35 | 302 | 6.4 | 12.9 | 0.00 | 0.00 | 0.00 | 34 | 1015.3 |
| 20260905145127 | 35 | 284 | 4.8 | 9.7 | 0.00 | 0.00 | 0.00 | 34 | 1015.5 |
| 20260905144513 | 35 | 250 | 0.0 | 11.3 | 0.00 | 0.00 | 0.00 | 34 | 1015.3 |
| 20260905144132 | 36 | 319 | 4.8 | 11.3 | 0.00 | 0.00 | 0.00 | 34 | 1015.4 |
| 20260905143139 | 35 | 217 | 1.6 | 9.7 | 0.00 | 0.00 | 0.00 | 34 | 1015.5 |
| 20260905143008 | 35 | 180 | 1.6 | 12.9 | 0.00 | 0.00 | 0.00 | 34 | 1015.4 |
| 20260905142155 | 35 | 257 | 8.0 | 14.5 | 0.00 | 0.00 | 0.00 | 34 | 1015.6 |
| 20260905141530 | 35 | 283 | 9.7 | 19.3 | 0.00 | 0.00 | 0.00 | 34 | 1015.5 |
| 20260905141129 | 35 | 294 | 8.0 | 19.3 | 0.00 | 0.00 | 0.00 | 35 | 1015.5 |
| 20260905140126 | 35 | 255 | 6.4 | 17.7 | 0.00 | 0.00 | 0.00 | 34 | 1015.6 |
| 20260905140031 | 34 | 259 | 11.3 | 17.7 | 0.00 | 0.00 | 0.00 | 34 | 1015.6 |
| 20260905135220 | 35 | 295 | 8.0 | 19.3 | 0.00 | 0.00 | 0.00 | 35 | 1015.8 |
| 20260905134529 | 35 | 287 | 11.3 | 19.3 | 0.00 | 0.00 | 0.00 | 34 | 1015.8 |
| 20260905134127 | 35 | 304 | 4.8 | 11.3 | 0.00 | 0.00 | 0.00 | 36 | 1016.0 |
| 20260905133142 | 35 | 205 | 6.4 | 14.5 | 0.00 | 0.00 | 0.00 | 34 | 1016.1 |
| 20260905133023 | 34 | 219 | 6.4 | 14.5 | 0.00 | 0.00 | 0.00 | 35 | 1015.9 |
| 20260905132147 | 34 | 261 | 0.0 | 17.7 | 0.00 | 0.00 | 0.00 | 36 | 1016.1 |
| 20260905131516 | 34 | 304 | 11.3 | 17.7 | 0.00 | 0.00 | 0.00 | 35 | 1016.1 |
| 20260905131200 | 34 | 316 | 6.4 | 14.5 | 0.00 | 0.00 | 0.00 | 35 | 1016.2 |
| 20260905130129 | 34 | 300 | 11.3 | 16.1 | 0.00 | 0.00 | 0.00 | 34 | 1016.2 |
| 20260905130015 | 33 | 245 | 11.3 | 16.1 | 0.00 | 0.00 | 0.00 | 34 | 1016.2 |
| 20260905125136 | 33 | 309 | 6.4 | 20.9 | 0.00 | 0.00 | 0.00 | 35 | 1016.3 |
| 20260905124538 | 33 | 306 | 4.8 | 16.1 | 0.00 | 0.00 | 0.00 | 36 | 1016.4 |
| 20260905124126 | 34 | 264 | 9.7 | 16.1 | 0.00 | 0.00 | 0.00 | 34 | 1016.5 |
| 20260905123137 | 33 | 321 | 6.4 | 20.9 | 0.00 | 0.00 | 0.00 | 35 | 1016.6 |
| 20260905123032 | 33 | 283 | 4.8 | 20.9 | 0.00 | 0.00 | 0.00 | 35 | 1016.6 |
| 20260905122141 | 33 | 304 | 11.3 | 22.5 | 0.00 | 0.00 | 0.00 | 35 | 1016.7 |
| 20260905121529 | 33 | 266 | 11.3 | 22.5 | 0.00 | 0.00 | 0.00 | 35 | 1016.6 |
| 20260905121129 | 33 | 299 | 3.2 | 14.5 | 0.00 | 0.00 | 0.00 | 37 | 1016.7 |
| 20260905120126 | 33 | 294 | 11.3 | 22.5 | 0.00 | 0.00 | 0.00 | 37 | 1016.8 |
| 20260905120027 | 33 | 292 | 14.5 | 22.5 | 0.00 | 0.00 | 0.00 | 36 | 1016.7 |
| 20260905115136 | 33 | 289 | 8.0 | 19.3 | 0.00 | 0.00 | 0.00 | 37 | 1016.9 |
| 20260905114522 | 33 | 312 | 6.4 | 14.5 | 0.00 | 0.00 | 0.00 | 37 | 1016.7 |
| 20260905114155 | 33 | 297 | 4.8 | 16.1 | 0.00 | 0.00 | 0.00 | 37 | 1016.8 |
| 20260905113129 | 33 | 307 | 12.9 | 20.9 | 0.00 | 0.00 | 0.00 | 36 | 1017.0 |
| 20260905113018 | 32 | 295 | 12.9 | 20.9 | 0.00 | 0.00 | 0.00 | 36 | 1016.8 |
| 20260905112144 | 32 | 304 | 9.7 | 20.9 | 0.00 | 0.00 | 0.00 | 38 | 1017.1 |
| 20260905111534 | 32 | 300 | 4.8 | 25.7 | 0.00 | 0.00 | 0.00 | 37 | 1016.9 |
| 20260905111130 | 33 | 330 | 6.4 | 25.7 | 0.00 | 0.00 | 0.00 | 38 | 1017.1 |
| 20260905110126 | 32 | 264 | 8.0 | 19.3 | 0.00 | 0.00 | 0.00 | 37 | 1017.2 |
| 20260905110033 | 32 | 286 | 11.3 | 20.9 | 0.00 | 0.00 | 0.00 | 37 | 1017.1 |
| 20260905105129 | 32 | 283 | 9.7 | 20.9 | 0.00 | 0.00 | 0.00 | 38 | 1017.1 |
| 20260905104507 | 32 | 277 | 17.7 | 22.5 | 0.00 | 0.00 | 0.00 | 37 | 1017.1 |
| 20260905104133 | 32 | 266 | 16.1 | 22.5 | 0.00 | 0.00 | 0.00 | 37 | 1017.2 |
| 20260905103126 | 32 | 311 | 12.9 | 25.7 | 0.00 | 0.00 | 0.00 | 38 | 1017.3 |
| 20260905103009 | 32 | 314 | 14.5 | 25.7 | 0.00 | 0.00 | 0.00 | 36 | 1017.1 |
| 20260905102129 | 32 | 314 | 17.7 | 25.7 | 0.00 | 0.00 | 0.00 | 37 | 1017.3 |
| 20260905101504 | 31 | 271 | 11.3 | 22.5 | 0.00 | 0.00 | 0.00 | 36 | 1017.0 |
| 20260905101202 | 32 | 304 | 16.1 | 24.1 | 0.00 | 0.00 | 0.00 | 37 | 1017.2 |
| 20260905100129 | 32 | 276 | 11.3 | 20.9 | 0.00 | 0.00 | 0.00 | 40 | 1017.2 |
| 20260905100003 | 31 | 308 | 8.0 | 22.5 | 0.00 | 0.00 | 0.00 | 41 | 1017.0 |
| 20260905095134 | 32 | 240 | 12.9 | 29.0 | 0.00 | 0.00 | 0.00 | 40 | 1017.4 |
| 20260905094508 | 31 | 304 | 12.9 | 20.9 | 0.00 | 0.00 | 0.00 | 42 | 1017.0 |
| 20260905094149 | 31 | 255 | 14.5 | 20.9 | 0.00 | 0.00 | 0.00 | 42 | 1017.3 |
| 20260905093141 | 31 | 282 | 9.7 | 19.3 | 0.00 | 0.00 | 0.00 | 45 | 1017.3 |
| 20260905093012 | 31 | 312 | 9.7 | 19.3 | 0.00 | 0.00 | 0.00 | 44 | 1017.2 |
| 20260905092135 | 31 | 302 | 12.9 | 22.5 | 0.00 | 0.00 | 0.00 | 45 | 1017.4 |
| 20260905091511 | 30 | 288 | 16.1 | 22.5 | 0.00 | 0.00 | 0.00 | 45 | 1017.3 |
| 20260905091134 | 31 | 293 | 11.3 | 17.7 | 0.00 | 0.00 | 0.00 | 46 | 1017.3 |
| 20260905090141 | 30 | 297 | 11.3 | 19.3 | 0.00 | 0.00 | 0.00 | 46 | 1017.3 |
| 20260905090006 | 30 | 280 | 11.3 | 19.3 | 0.00 | 0.00 | 0.00 | 46 | 1017.1 |
| 20260905085130 | 30 | 288 | 12.9 | 19.3 | 0.00 | 0.00 | 0.00 | 46 | 1017.2 |
| 20260905084505 | 30 | 297 | 14.5 | 24.1 | 0.00 | 0.00 | 0.00 | 45 | 1017.0 |
| 20260905084135 | 30 | 285 | 14.5 | 24.1 | 0.00 | 0.00 | 0.00 | 46 | 1017.1 |
| 20260905083143 | 30 | 284 | 17.7 | 22.5 | 0.00 | 0.00 | 0.00 | 47 | 1017.1 |
| 20260905083004 | 30 | 302 | 17.7 | 22.5 | 0.00 | 0.00 | 0.00 | 46 | 1016.8 |
| 20260905082125 | 30 | 276 | 12.9 | 20.9 | 0.00 | 0.00 | 0.00 | 45 | 1016.9 |
| 20260905081505 | 30 | 291 | 14.5 | 19.3 | 0.00 | 0.00 | 0.00 | 45 | 1016.7 |
| 20260905081132 | 30 | 281 | 14.5 | 19.3 | 0.00 | 0.00 | 0.00 | 46 | 1016.8 |